createdAt,value
2022-09-06T00:02:00.967Z,95.20
2022-09-06T00:04:42.314Z,95.40
2022-09-06T00:07:17.945Z,95.20
2022-09-06T00:10:00.546Z,96.10
2022-09-06T00:12:36.359Z,95.40
2022-09-06T00:15:15.144Z,95.60
2022-09-06T00:17:51.855Z,95.10
2022-09-06T00:20:29.476Z,95.20
2022-09-06T00:23:07.967Z,95.10
2022-09-06T00:25:48.780Z,95.80
2022-09-06T00:28:23.390Z,96.00
2022-09-06T00:30:58.673Z,95.40
2022-09-06T00:33:35.592Z,95.70
2022-09-06T00:36:23.872Z,95.40
2022-09-06T00:38:58.845Z,96.20
2022-09-06T00:41:35.633Z,95.70
2022-09-06T00:44:12.601Z,95.90
2022-09-06T00:46:53.101Z,95.80
2022-09-06T00:49:30.743Z,96.10
2022-09-06T00:52:10.551Z,96.10
2022-09-06T00:54:49.203Z,95.30
2022-09-06T00:57:27.494Z,96.10
2022-09-06T01:00:05.924Z,95.80
2022-09-06T01:02:40.758Z,96.20
2022-09-06T01:05:17.202Z,95.90
2022-09-06T01:08:08.843Z,95.90
2022-09-06T01:11:10.369Z,95.70
2022-09-06T01:13:56.280Z,95.70
2022-09-06T01:16:42.790Z,95.90
2022-09-06T01:20:09.715Z,96.20
2022-09-06T01:23:34.382Z,96.00
2022-09-06T01:26:39.550Z,95.80
2022-09-06T01:29:28.181Z,95.50
2022-09-06T01:32:12.348Z,96.00
2022-09-06T01:34:54.126Z,96.00
2022-09-06T01:37:44.185Z,96.70
2022-09-06T01:40:19.590Z,96.30
2022-09-06T01:42:55.497Z,95.90
2022-09-06T01:45:48.697Z,96.10
2022-09-06T01:48:40.150Z,96.80
2022-09-06T01:51:30.813Z,95.90
2022-09-06T01:54:33.628Z,96.20
2022-09-06T01:57:25.042Z,96.10
2022-09-06T02:00:09.316Z,96.00
2022-09-06T02:02:56.375Z,97.10
2022-09-06T02:05:40.743Z,96.80
2022-09-06T02:08:19.655Z,96.90
2022-09-06T02:10:59.818Z,96.70
2022-09-06T02:13:40.986Z,96.70
2022-09-06T02:16:21.389Z,96.70
2022-09-06T02:19:01.267Z,96.90
2022-09-06T02:21:47.658Z,96.70
2022-09-06T02:24:28.120Z,96.90
2022-09-06T02:27:02.314Z,96.90
2022-09-06T02:29:37.352Z,97.00
2022-09-06T02:32:18.038Z,97.00
2022-09-06T02:34:57.508Z,96.70
2022-09-06T02:37:31.907Z,97.50
2022-09-06T02:40:14.207Z,96.60
2022-09-06T02:42:48.998Z,96.40
2022-09-06T02:45:23.498Z,96.80
2022-09-06T02:47:58.395Z,96.80
2022-09-06T02:50:35.549Z,97.80
2022-09-06T02:53:12.818Z,97.70
2022-09-06T02:55:49.012Z,97.30
2022-09-06T02:58:23.904Z,97.80
2022-09-06T03:00:59.602Z,98.10
2022-09-06T03:03:38.410Z,97.60
2022-09-06T03:06:14.594Z,98.60
2022-09-06T03:08:49.030Z,98.50
2022-09-06T03:11:23.377Z,98.20
2022-09-06T03:13:57.886Z,97.60
2022-09-06T03:16:37.112Z,97.40
2022-09-06T03:19:11.552Z,97.80
2022-09-06T03:21:48.376Z,98.50
2022-09-06T03:24:23.930Z,99.00
2022-09-06T03:27:00.316Z,99.90
2022-09-06T03:29:35.126Z,99.30
2022-09-06T03:32:10.557Z,99.40
2022-09-06T03:34:45.115Z,98.60
2022-09-06T03:37:22.332Z,98.70
2022-09-06T03:40:07.897Z,98.90
2022-09-06T03:42:43.150Z,97.90
2022-09-06T03:45:18.541Z,98.80
2022-09-06T03:47:52.948Z,98.90
2022-09-06T03:50:27.762Z,98.80
2022-09-06T03:53:04.315Z,98.50
2022-09-06T03:55:39.075Z,99.10
2022-09-06T03:58:20.425Z,98.50
2022-09-06T04:01:04.557Z,98.80
2022-09-06T04:03:48.046Z,98.50
2022-09-06T04:06:22.524Z,99.20
2022-09-06T04:08:59.021Z,98.50
2022-09-06T04:11:35.790Z,99.00
2022-09-06T04:14:10.290Z,99.50
2022-09-06T04:16:44.760Z,99.20
2022-09-06T04:19:24.162Z,99.10
2022-09-06T04:21:59.692Z,99.00
2022-09-06T04:24:36.265Z,98.90
2022-09-06T04:27:10.939Z,99.50
2022-09-06T04:29:46.711Z,99.30
2022-09-06T04:32:26.882Z,99.60
2022-09-06T04:35:01.514Z,99.80
2022-09-06T04:37:38.320Z,99.90
2022-09-06T04:40:23.047Z,99.90
2022-09-06T04:43:05.874Z,99.90
2022-09-06T04:45:41.233Z,99.40
2022-09-06T04:48:27.879Z,99.60
2022-09-06T04:51:02.726Z,99.50
2022-09-06T04:53:37.599Z,99.30
2022-09-06T04:56:19.631Z,99.10
2022-09-06T04:58:56.438Z,99.70
2022-09-06T05:01:31.730Z,99.50
2022-09-06T05:04:06.778Z,99.90
2022-09-06T05:06:46.771Z,99.90
2022-09-06T05:09:21.916Z,99.60
2022-09-06T05:11:58.491Z,99.90
2022-09-06T05:14:36.996Z,99.70
2022-09-06T05:20:09.180Z,99.40
2022-09-06T05:22:44.864Z,99.80
2022-09-06T05:25:37.226Z,99.90
2022-09-06T05:28:17.670Z,99.60
2022-09-06T05:30:53.526Z,99.90
2022-09-06T05:33:31.628Z,99.70
2022-09-06T05:36:08.588Z,99.90
2022-09-06T05:38:43.305Z,99.50
2022-09-06T05:41:20.095Z,99.40
2022-09-06T05:44:07.547Z,99.40
2022-09-06T05:49:43.422Z,99.90
2022-09-06T05:52:24.319Z,99.90
2022-09-06T05:55:00.626Z,99.90
2022-09-06T05:57:37.728Z,99.90
2022-09-06T06:00:17.164Z,99.70
2022-09-06T06:02:58.891Z,99.40
2022-09-06T06:05:36.147Z,99.90
2022-09-06T06:08:12.849Z,99.90
2022-09-06T06:10:47.825Z,99.70
2022-09-06T06:13:23.641Z,99.20
2022-09-06T06:16:01.107Z,99.90
2022-09-06T06:18:36.531Z,99.10
2022-09-06T06:21:13.751Z,99.80
2022-09-06T06:23:52.918Z,99.30
2022-09-06T06:26:29.947Z,99.90
2022-09-06T06:29:15.508Z,99.80
2022-09-06T06:32:00.588Z,99.20
2022-09-06T06:34:36.176Z,99.20
2022-09-06T06:37:11.632Z,99.20
2022-09-06T06:39:52.002Z,98.80
2022-09-06T06:42:26.705Z,98.80
2022-09-06T06:45:01.249Z,99.70
2022-09-06T06:47:38.034Z,99.40
2022-09-06T06:50:12.283Z,99.80
2022-09-06T06:52:46.579Z,99.50
2022-09-06T06:55:24.925Z,99.00
2022-09-06T06:58:02.029Z,99.00
2022-09-06T07:00:37.515Z,99.40
2022-09-06T07:03:20.440Z,99.20
2022-09-06T07:06:10.744Z,99.40
2022-09-06T07:08:49.216Z,99.30
2022-09-06T07:11:24.982Z,99.40
2022-09-06T07:13:59.657Z,98.80
2022-09-06T07:16:34.093Z,98.20
2022-09-06T07:22:05.767Z,98.80
2022-09-06T07:24:41.337Z,98.60
2022-09-06T07:30:14.304Z,98.40
2022-09-06T07:32:48.870Z,98.20
2022-09-06T07:35:26.864Z,98.00
2022-09-06T07:38:03.571Z,97.50
2022-09-06T07:40:38.972Z,97.70
2022-09-06T07:43:13.374Z,97.40
2022-09-06T07:45:47.742Z,97.40
2022-09-06T07:48:22.226Z,97.60
2022-09-06T07:51:04.897Z,96.60
2022-09-06T07:53:40.646Z,96.50
2022-09-06T07:56:15.160Z,96.70
2022-09-06T07:58:50.273Z,96.40
2022-09-06T08:01:32.336Z,96.80
2022-09-06T08:04:10.038Z,96.90
2022-09-06T08:09:42.624Z,96.90
2022-09-06T08:12:18.074Z,95.60
2022-09-06T08:14:54.200Z,96.60
2022-09-06T08:17:29.136Z,96.70
2022-09-06T08:20:04.425Z,96.00
2022-09-06T08:22:43.459Z,96.10
2022-09-06T08:25:19.081Z,97.20
2022-09-06T08:27:54.247Z,96.00
2022-09-06T08:30:29.877Z,96.40
2022-09-06T08:33:05.820Z,96.80
2022-09-06T08:35:42.059Z,96.60
2022-09-06T08:38:20.709Z,95.70
2022-09-06T08:41:10.915Z,95.40
2022-09-06T08:46:57.733Z,93.60
2022-09-06T08:49:35.921Z,94.00
2022-09-06T08:53:13.169Z,94.20
2022-09-06T08:55:51.092Z,94.40
2022-09-06T08:58:50.910Z,94.50
2022-09-06T09:01:30.467Z,94.60
2022-09-06T09:04:07.366Z,94.00
2022-09-06T09:06:41.992Z,93.00
2022-09-06T09:09:17.665Z,94.80
2022-09-06T09:11:53.709Z,93.70
2022-09-06T09:14:35.356Z,94.30
2022-09-06T09:17:20.439Z,93.70
2022-09-06T09:19:56.694Z,93.50
2022-09-06T09:22:33.808Z,93.20
2022-09-06T09:25:20.930Z,93.70
2022-09-06T09:28:00.929Z,93.50
2022-09-06T09:30:51.233Z,93.00
2022-09-06T09:33:39.682Z,92.90
2022-09-06T09:36:16.232Z,92.20
2022-09-06T09:39:01.216Z,93.20
2022-09-06T09:41:38.558Z,92.90
2022-09-06T09:44:31.768Z,93.10
2022-09-06T09:47:26.372Z,92.50
2022-09-06T09:50:01.628Z,93.70
2022-09-06T09:52:46.146Z,93.00
2022-09-06T09:55:25.238Z,92.90
2022-09-06T09:58:00.176Z,92.30
2022-09-06T10:00:40.344Z,91.80
2022-09-06T10:03:21.524Z,91.70
2022-09-06T10:06:02.708Z,92.10
2022-09-06T10:11:51.830Z,92.50
2022-09-06T10:14:33.185Z,92.10
2022-09-06T10:17:09.306Z,92.30
2022-09-06T10:19:48.826Z,92.40
2022-09-06T10:22:31.518Z,91.70
2022-09-06T10:25:49.186Z,92.30
2022-09-06T10:28:36.837Z,92.00
2022-09-06T10:31:54.831Z,91.80
2022-09-06T10:41:52.805Z,91.90
2022-09-06T10:44:45.966Z,92.70
2022-09-06T10:47:21.947Z,91.60
2022-09-06T10:50:02.014Z,91.90
2022-09-06T10:52:40.073Z,90.90
2022-09-06T10:55:18.910Z,90.30
2022-09-06T10:58:20.736Z,90.00
2022-09-06T11:00:57.123Z,90.30
2022-09-06T11:06:34.126Z,90.30
2022-09-06T11:09:21.883Z,89.30
2022-09-06T11:12:09.904Z,88.10
2022-09-06T11:14:44.400Z,87.40
2022-09-06T11:17:31.507Z,87.70
2022-09-06T11:20:10.122Z,87.20
2022-09-06T11:23:12.109Z,86.80
2022-09-06T11:26:29.413Z,86.80
2022-09-06T11:29:20.138Z,87.90
2022-09-06T11:34:56.566Z,86.00
2022-09-06T11:37:35.348Z,87.00
2022-09-06T11:40:28.237Z,87.40
2022-09-06T11:43:45.708Z,87.30
2022-09-06T11:47:01.994Z,86.50
2022-09-06T11:49:41.883Z,86.40
2022-09-06T11:52:59.448Z,86.60
2022-09-06T11:55:39.890Z,87.00
2022-09-06T11:58:29.270Z,87.60
2022-09-06T12:02:01.402Z,88.10
2022-09-06T12:05:25.170Z,87.00
2022-09-06T12:08:33.802Z,86.30
2022-09-06T12:11:30.337Z,86.10
2022-09-06T12:14:11.770Z,86.00
2022-09-06T12:17:29.471Z,85.60
2022-09-06T12:20:07.578Z,85.60
2022-09-06T12:22:56.570Z,85.10
2022-09-06T12:26:00.654Z,86.40
2022-09-06T12:28:49.802Z,86.20
2022-09-06T12:31:38.499Z,86.50
2022-09-06T12:34:21.895Z,86.70
2022-09-06T12:37:00.774Z,87.60
2022-09-06T12:39:36.615Z,85.60
2022-09-06T12:42:15.428Z,86.20
2022-09-06T12:45:03.144Z,84.70
2022-09-06T12:47:46.491Z,86.70
2022-09-06T12:50:26.125Z,84.00
2022-09-06T12:53:23.390Z,85.20
2022-09-06T12:56:12.221Z,85.20
2022-09-06T12:58:47.053Z,84.10
2022-09-06T13:01:28.009Z,84.40
2022-09-06T13:04:28.902Z,83.30
2022-09-06T13:07:06.786Z,81.80
2022-09-06T13:09:47.030Z,83.30
2022-09-06T13:12:39.460Z,82.80
2022-09-06T13:15:22.667Z,81.30
2022-09-06T13:18:23.707Z,80.70
2022-09-06T13:21:09.003Z,81.10
2022-09-06T13:23:52.025Z,80.90
2022-09-06T13:26:39.405Z,81.60
2022-09-06T13:29:33.730Z,81.30
2022-09-06T13:32:16.533Z,81.90
2022-09-06T13:34:57.237Z,80.30
2022-09-06T13:37:49.592Z,80.80
2022-09-06T13:41:17.224Z,82.20
2022-09-06T13:44:00.594Z,79.50
2022-09-06T13:46:36.752Z,80.90
2022-09-06T13:49:21.027Z,79.10
2022-09-06T13:52:03.018Z,79.70
2022-09-06T13:55:10.769Z,78.80
2022-09-06T13:57:48.528Z,79.60
2022-09-06T14:00:24.130Z,79.70
2022-09-06T14:03:00.498Z,79.80
2022-09-06T14:05:39.137Z,79.90
2022-09-06T14:08:15.927Z,78.90
2022-09-06T14:10:54.325Z,79.30
2022-09-06T14:13:28.901Z,77.90
2022-09-06T14:16:06.512Z,78.40
2022-09-06T14:18:41.491Z,79.60
2022-09-06T14:21:24.238Z,78.80
2022-09-06T14:24:23.251Z,78.00
2022-09-06T14:27:00.072Z,77.20
2022-09-06T14:29:36.922Z,76.70
2022-09-06T14:32:12.910Z,78.40
2022-09-06T14:34:48.480Z,78.90
2022-09-06T14:37:24.266Z,77.70
2022-09-06T14:40:03.357Z,78.60
2022-09-06T14:42:42.204Z,80.60
2022-09-06T14:45:18.543Z,80.20
2022-09-06T14:47:55.060Z,78.80
2022-09-06T14:50:31.858Z,78.10
2022-09-06T14:53:24.076Z,78.00
2022-09-06T14:56:06.188Z,78.50
2022-09-06T14:58:43.194Z,78.00
2022-09-06T15:01:20.906Z,77.40
2022-09-06T15:03:58.954Z,79.00
2022-09-06T15:06:39.351Z,78.40
2022-09-06T15:09:15.154Z,78.90
2022-09-06T15:11:55.623Z,80.00
2022-09-06T15:14:30.784Z,79.70
2022-09-06T15:17:19.317Z,79.40
2022-09-06T15:19:57.958Z,80.30
2022-09-06T15:22:33.836Z,79.60
2022-09-06T15:25:12.095Z,80.90
2022-09-06T15:27:48.610Z,80.70
2022-09-06T15:30:23.639Z,81.40
2022-09-06T15:33:01.761Z,79.40
2022-09-06T15:35:45.254Z,79.30
2022-09-06T15:38:21.261Z,79.00
2022-09-06T15:41:09.380Z,80.90
2022-09-06T15:44:10.993Z,80.20
2022-09-06T15:47:24.058Z,80.00
2022-09-06T15:56:07.737Z,81.20
2022-09-06T15:59:33.643Z,80.20
2022-09-06T16:05:09.474Z,80.80
2022-09-06T16:07:47.130Z,80.40
2022-09-06T16:10:28.797Z,81.30
2022-09-06T16:13:14.341Z,80.80
2022-09-06T16:16:18.788Z,81.20
2022-09-06T16:22:08.391Z,81.40
2022-09-06T16:24:48.152Z,79.00
2022-09-06T16:30:13.755Z,78.70
2022-09-06T16:32:52.411Z,77.70
2022-09-06T16:35:31.082Z,79.30
2022-09-06T16:38:09.115Z,79.70
2022-09-06T16:40:50.816Z,79.60
2022-09-06T16:46:33.410Z,80.70
2022-09-06T16:49:12.288Z,80.50
2022-09-06T16:51:55.816Z,80.10
2022-09-06T16:54:37.780Z,81.30
2022-09-06T16:57:19.917Z,80.70
2022-09-06T17:00:01.230Z,81.40
2022-09-06T17:02:45.021Z,80.20
2022-09-06T17:05:22.346Z,83.10
2022-09-06T17:07:56.950Z,82.50
2022-09-06T17:13:42.668Z,82.90
2022-09-06T17:16:38.645Z,81.90
2022-09-06T17:19:16.201Z,84.70
2022-09-06T17:21:51.508Z,85.50
2022-09-06T17:24:45.564Z,84.20
2022-09-06T17:27:21.222Z,83.90
2022-09-06T17:30:27.485Z,86.30
2022-09-06T17:33:20.040Z,85.10
2022-09-06T17:36:14.128Z,85.90
2022-09-06T17:39:08.387Z,85.90
2022-09-06T17:41:53.088Z,87.70
2022-09-06T17:44:30.805Z,89.00
2022-09-06T17:47:12.815Z,88.40
2022-09-06T17:49:49.416Z,87.80
2022-09-06T17:52:48.048Z,88.20
2022-09-06T17:55:22.889Z,90.10
2022-09-06T17:57:58.040Z,91.00
2022-09-06T18:00:44.806Z,90.50
2022-09-06T18:03:25.182Z,90.30
2022-09-06T18:06:16.875Z,90.70
2022-09-06T18:09:22.260Z,90.80
2022-09-06T18:12:00.188Z,90.80
2022-09-06T18:14:35.949Z,90.90
2022-09-06T18:17:24.836Z,90.70
2022-09-06T18:23:33.728Z,90.90
2022-09-06T18:29:15.299Z,91.20
2022-09-06T18:32:11.074Z,92.00
2022-09-06T18:34:53.215Z,91.60
2022-09-06T18:40:43.016Z,91.70
2022-09-06T18:43:30.692Z,92.40
2022-09-06T18:46:10.848Z,92.40
2022-09-06T18:48:54.651Z,92.00
2022-09-06T18:57:31.792Z,92.80
2022-09-06T19:00:27.942Z,93.20
2022-09-06T19:06:19.042Z,92.90
2022-09-06T19:08:56.689Z,92.70
2022-09-06T19:14:29.088Z,93.20
2022-09-06T19:17:04.892Z,93.10
2022-09-06T19:19:44.888Z,93.30
2022-09-06T19:22:33.456Z,93.40
2022-09-06T19:25:11.328Z,93.80
2022-09-06T19:27:48.783Z,93.40
2022-09-06T19:30:42.207Z,93.70
2022-09-06T19:33:18.880Z,93.60
2022-09-06T19:36:11.532Z,93.60
2022-09-06T19:39:03.112Z,93.80
2022-09-06T19:41:55.336Z,94.70
2022-09-06T19:44:30.165Z,94.10
2022-09-06T19:47:07.321Z,94.10
2022-09-06T19:49:43.366Z,94.00
2022-09-06T19:52:18.569Z,95.10
2022-09-06T19:55:01.836Z,94.10
2022-09-06T19:57:37.054Z,94.50
2022-09-06T20:00:13.573Z,94.50
2022-09-06T20:02:50.824Z,94.60
2022-09-06T20:05:25.764Z,94.70
2022-09-06T20:08:00.685Z,95.10
2022-09-06T20:10:35.238Z,95.40
2022-09-06T20:13:12.384Z,95.60
2022-09-06T20:15:47.162Z,95.00
2022-09-06T20:18:26.456Z,95.00
2022-09-06T20:21:01.208Z,95.20
2022-09-06T20:23:37.797Z,95.40
2022-09-06T20:26:15.381Z,95.30
2022-09-06T20:28:50.739Z,95.30
2022-09-06T20:31:28.945Z,95.90
2022-09-06T20:34:09.632Z,95.30
2022-09-06T20:36:49.771Z,95.60
2022-09-06T20:39:27.563Z,95.60
2022-09-06T20:42:05.982Z,95.80
2022-09-06T20:44:44.199Z,96.10
2022-09-06T20:50:11.122Z,95.70
2022-09-06T20:52:46.486Z,95.40
2022-09-06T20:55:21.160Z,95.50
2022-09-06T20:58:00.586Z,96.00
2022-09-06T21:00:35.194Z,95.90
2022-09-06T21:03:10.979Z,96.70
2022-09-06T21:05:53.490Z,96.50
2022-09-06T21:08:43.178Z,96.40
2022-09-06T21:11:19.530Z,96.40
2022-09-06T21:14:01.753Z,96.30
2022-09-06T21:16:36.873Z,96.20
2022-09-06T21:19:12.568Z,96.90
2022-09-06T21:21:49.083Z,96.60
2022-09-06T21:24:26.605Z,96.10
2022-09-06T21:27:01.000Z,96.70
2022-09-06T21:29:36.718Z,96.80
2022-09-06T21:32:11.611Z,96.20
2022-09-06T21:34:48.979Z,96.60
2022-09-06T21:37:35.043Z,96.60
2022-09-06T21:40:11.109Z,96.80
2022-09-06T21:42:48.645Z,96.30
2022-09-06T21:45:23.959Z,96.60
2022-09-06T21:47:58.775Z,96.50
2022-09-06T21:50:35.915Z,97.20
2022-09-06T21:53:14.182Z,96.60
2022-09-06T21:55:49.751Z,96.20
2022-09-06T21:58:24.370Z,96.80
2022-09-06T22:01:02.014Z,96.30
2022-09-06T22:03:40.394Z,96.40
2022-09-06T22:06:17.962Z,96.40
2022-09-06T22:08:57.952Z,96.20
2022-09-06T22:11:35.222Z,96.70
2022-09-06T22:14:12.354Z,96.80
2022-09-06T22:16:55.684Z,96.30
2022-09-06T22:19:30.052Z,96.20
2022-09-06T22:22:07.737Z,96.80
2022-09-06T22:24:57.263Z,96.90
2022-09-06T22:27:39.527Z,96.50
2022-09-06T22:30:15.276Z,96.50
2022-09-06T22:32:49.723Z,96.30
2022-09-06T22:35:24.405Z,96.80
2022-09-06T22:38:01.502Z,97.10
2022-09-06T22:40:40.341Z,97.20
2022-09-06T22:43:20.798Z,96.60
2022-09-06T22:45:56.844Z,96.70
2022-09-06T22:48:32.188Z,96.90
2022-09-06T22:51:12.357Z,97.30
2022-09-06T22:53:46.802Z,96.90
2022-09-06T22:56:30.085Z,97.40
2022-09-06T22:59:06.809Z,96.80
2022-09-06T23:01:41.563Z,97.50
2022-09-06T23:04:16.640Z,96.80
2022-09-06T23:06:51.402Z,96.80
2022-09-06T23:09:30.764Z,96.70
2022-09-06T23:12:07.167Z,96.80
2022-09-06T23:14:43.453Z,96.80
2022-09-06T23:17:18.573Z,97.00
2022-09-06T23:19:54.737Z,96.80
2022-09-06T23:22:30.531Z,96.90
2022-09-06T23:25:05.328Z,96.90
2022-09-06T23:27:43.393Z,96.80
2022-09-06T23:30:18.878Z,97.20
2022-09-06T23:32:53.752Z,97.10
2022-09-06T23:35:29.900Z,96.90
2022-09-06T23:38:13.616Z,97.40
2022-09-06T23:40:48.699Z,97.00
2022-09-06T23:43:24.883Z,97.70
2022-09-06T23:46:00.340Z,97.30
2022-09-06T23:48:35.934Z,97.10
2022-09-06T23:51:14.212Z,97.00
2022-09-06T23:53:49.738Z,97.10
2022-09-06T23:56:24.571Z,97.30
2022-09-06T23:59:02.885Z,98.40
